Flight Track Log - Related Links

Times and Time Zones

All times are in EDT time to prevent confusion due to time zone crossing. See the SKW5516 flight status page for this flight to view local times or setup timezone preferences in your user account.

Time Position Orientation Groundspeed Altitude Reporting Facility
EDT Latitude Longitude Course Direction KTS MPH feet Rate Location/Type
Wed 08:48:17 AM 38.9500 -77.5167 270° West 170 196 1,500  Level Potomac TRACON
Wed 08:49:17 AM 38.9500 -77.5833 270° West 227 261 3,200 1,930 Climbing Potomac TRACON
Wed 08:50:12 AM 38.9167 -77.6667 243° Southwest 250 288 5,200 2,138 Climbing Potomac TRACON
Wed 08:50:44 AM 38.9031 -77.7069 247° West 276 318 6,300 2,467 Climbing Washington Center
Wed 08:51:42 AM 38.8933 -77.7894 261° West 286 329 8,900 2,571 Climbing Washington Center
Wed 08:52:43 AM 38.8831 -77.8931 263° West 276 318 11,400 1,721 Climbing Washington Center
Wed 08:53:44 AM 38.8728 -77.9942 263° West 276 318 12,400 1,424 Climbing Washington Center
Wed 08:54:41 AM 38.8642 -78.1058 264° West 298 343 14,200 1,831 Climbing Washington Center
Wed 08:55:42 AM 38.8533 -78.2228 263° West 319 367 16,000 1,377 Climbing Washington Center
Wed 08:56:43 AM 38.8533 -78.3186 270° West 330 380 17,000 1,388 Climbing Washington Center
Wed 08:57:43 AM 38.8519 -78.4653 269° West 335 386 18,800 1,587 Climbing Washington Center
Wed 08:58:44 AM 38.8511 -78.5906 270° West 347 399 20,200 1,311 Climbing Washington Center
Wed 08:59:42 AM 38.8497 -78.7183 269° West 353 406 21,400 1,261 Climbing Washington Center
Wed 09:00:43 AM 38.8483 -78.8489 269° West 365 420 22,700 1,180 Climbing Washington Center
Wed 09:01:44 AM 38.8469 -78.9822 269° West 370 426 23,800 1,150 Climbing Washington Center
Wed 09:02:43 AM 38.8431 -79.1153 268° West 370 426 25,000 1,059 Climbing Washington Center
Wed 09:03:43 AM 38.8389 -79.2536 268° West 375 432 25,900 1,041 Climbing Washington Center
Wed 09:04:44 AM 38.8347 -79.3894 268° West 385 443 27,100 1,059 Climbing Washington Center
Wed 09:05:42 AM 38.8344 -79.5306 270° West 385 443 28,000 857 Climbing Washington Center
Wed 09:06:43 AM 38.8278 -79.6661 266° West 398 458 28,800 893 Climbing Washington Center
Wed 09:07:43 AM 38.8181 -79.8256 266° West 406 467 29,800 942 Climbing Washington Center
Wed 09:08:44 AM 38.8147 -79.9719 268° West 406 467 30,700 1,000 Climbing Washington Center
Wed 09:09:43 AM 38.8117 -80.1131 268° West 406 467 31,800 1,056 Climbing Washington Center
Wed 09:10:49 AM 38.8061 -80.2442 267° West 397 457 32,900 844 Climbing Indianapolis Center
Wed 09:11:51 AM 38.8033 -80.3842 269° West 393 452 33,600 726 Climbing Indianapolis Center
Wed 09:12:53 AM 38.7989 -80.5511 268° West 392 451 34,400 677 Climbing Indianapolis Center
Wed 09:13:55 AM 38.7964 -80.6919 269° West 395 455 35,000 532 Climbing Indianapolis Center
Wed 09:14:57 AM 38.7658 -80.8311 254° West 411 473 35,500 576 Climbing Indianapolis Center
Wed 09:16:00 AM 38.7247 -80.9683 249° West 411 473 36,200 677 Climbing Indianapolis Center
Wed 09:17:01 AM 38.6842 -81.1036 249° West 406 467 36,900 387 Climbing Indianapolis Center
Wed 09:18:04 AM 38.6264 -81.2325 240° Southwest 414 476 37,000 48 Climbing Indianapolis Center
Wed 09:19:06 AM 38.5628 -81.3633 238° Southwest 425 489 37,000  Level Indianapolis Center
Wed 09:20:08 AM 38.4978 -81.5006 239° Southwest 439 505 37,000  Level Indianapolis Center
Wed 09:21:10 AM 38.4322 -81.6381 239° Southwest 446 513 37,000  Level Indianapolis Center
Wed 09:22:12 AM 38.3544 -81.8019 239° Southwest 449 517 37,000  Level Indianapolis Center
Wed 09:23:14 AM 38.2908 -81.9394 240° Southwest 449 517 37,000  Level Indianapolis Center
Wed 09:24:16 AM 38.2253 -82.0756 239° Southwest 452 520 37,000 484 Level Indianapolis Center
Wed 09:25:18 AM 38.1642 -82.2108 240° Southwest 444 511 38,000 484 Climbing Indianapolis Center
Wed 09:26:20 AM 38.1025 -82.3644 243° Southwest 433 498 38,000  Level Indianapolis Center
Wed 09:27:22 AM 38.0492 -82.4981 243° Southwest 427 491 38,000  Level Indianapolis Center
Wed 09:28:24 AM 37.9944 -82.6344 243° Southwest 433 498 38,000  Level Indianapolis Center
Wed 09:29:26 AM 37.9394 -82.7700 243° Southwest 433 498 38,000  Level Indianapolis Center
Wed 09:30:28 AM 37.8847 -82.9067 243° Southwest 435 501 38,000  Level Indianapolis Center
Wed 09:31:30 AM 37.8203 -83.0647 243° Southwest 436 502 38,000  Level Indianapolis Center
Wed 09:32:32 AM 37.7658 -83.1989 243° Southwest 431 496 38,000  Level Indianapolis Center
Wed 09:33:34 AM 37.7111 -83.3342 243° Southwest 432 497 38,000  Level Indianapolis Center
Wed 09:34:36 AM 37.6550 -83.4697 242° Southwest 436 502 38,000  Level Indianapolis Center
Wed 09:35:38 AM 37.5986 -83.6039 242° Southwest 435 501 38,000  Level Indianapolis Center
Wed 09:36:40 AM 37.5339 -83.7622 243° Southwest 437 503 38,000  Level Indianapolis Center
Wed 09:37:42 AM 37.4761 -83.8986 242° Southwest 441 507 38,000  Level Indianapolis Center
Wed 09:38:45 AM 37.4194 -84.0347 242° Southwest 441 507 38,000  Level Indianapolis Center
Wed 09:39:47 AM 37.3636 -84.1714 243° Southwest 440 506 38,000  Level Indianapolis Center
Wed 09:40:49 AM 37.3058 -84.3069 242° Southwest 442 509 38,000  Level Indianapolis Center
Wed 09:41:51 AM 37.2378 -84.4672 242° Southwest 443 510 38,000  Level Indianapolis Center
Wed 09:42:53 AM 37.1800 -84.6036 242° Southwest 444 511 38,000  Level Indianapolis Center
Wed 09:43:55 AM 37.1217 -84.7417 242° Southwest 446 513 38,000  Level Indianapolis Center
Wed 09:44:57 AM 37.0636 -84.8775 242° Southwest 445 512 38,000  Level Indianapolis Center
Wed 09:45:59 AM 36.9942 -85.0353 241° Southwest 447 514 38,000  Level Indianapolis Center
Wed 09:47:01 AM 36.9347 -85.1731 242° Southwest 450 518 38,000  Level Indianapolis Center
Wed 09:48:03 AM 36.8756 -85.3097 242° Southwest 450 518 38,000  Level Indianapolis Center
Wed 09:49:05 AM 36.8156 -85.4475 241° Southwest 452 520 38,000  Level Indianapolis Center
Wed 09:50:07 AM 36.7544 -85.5858 241° Southwest 457 526 38,000  Level Indianapolis Center
Wed 09:51:09 AM 36.6953 -85.7219 242° Southwest 451 519 38,000  Level Indianapolis Center
Wed 09:52:11 AM 36.6289 -85.8708 241° Southwest 454 522 38,000  Level Indianapolis Center
Wed 09:53:13 AM 36.5672 -86.0097 241° Southwest 455 524 38,000  Level Indianapolis Center
Wed 09:54:08 AM 36.5019 -86.1517 240° Southwest 453 521 38,000  Level Memphis Center
Wed 09:55:08 AM 36.4400 -86.2917 241° Southwest 453 521 38,000  Level Memphis Center
Wed 09:56:08 AM 36.3778 -86.4261 240° Southwest 453 521 38,000  Level Memphis Center
Wed 09:57:08 AM 36.3172 -86.5578 240° Southwest 453 521 38,000  Level Memphis Center
Wed 09:58:08 AM 36.2583 -86.6842 240° Southwest 453 521 38,000  Level Memphis Center
Wed 09:59:08 AM 36.1894 -86.8236 239° Southwest 469 540 38,000  Level Memphis Center
Wed 10:00:08 AM 36.1331 -86.9672 244° Southwest 476 548 38,000  Level Memphis Center
Wed 10:01:08 AM 36.0661 -87.1164 241° Southwest 463 533 38,000  Level Memphis Center
Wed 10:02:08 AM 36.0031 -87.2550 241° Southwest 463 533 38,000  Level Memphis Center
Wed 10:03:08 AM 35.9394 -87.3906 240° Southwest 463 533 38,000  Level Memphis Center
Wed 10:04:08 AM 35.8761 -87.5289 241° Southwest 468 539 38,000  Level Memphis Center
Wed 10:05:08 AM 35.8144 -87.6664 241° Southwest 462 532 38,000  Level Memphis Center
Wed 10:06:08 AM 35.7506 -87.7992 239° Southwest 467 537 38,000  Level Memphis Center
Wed 10:07:08 AM 35.6844 -87.9367 239° Southwest 467 537 38,000  Level Memphis Center
Wed 10:08:08 AM 35.6225 -88.0739 241° Southwest 467 537 38,000  Level Memphis Center
Wed 10:09:08 AM 35.5581 -88.2006 238° Southwest 458 527 38,000  Level Memphis Center
Wed 10:10:08 AM 35.4933 -88.3322 239° Southwest 453 521 38,000  Level Memphis Center
Wed 10:11:08 AM 35.4350 -88.4561 240° Southwest 453 521 38,000  Level Memphis Center
Wed 10:12:08 AM 35.3642 -88.6078 240° Southwest 463 533 38,000  Level Memphis Center
Wed 10:13:08 AM 35.3075 -88.7261 240° Southwest 469 540 38,000  Level Memphis Center
Wed 10:14:08 AM 35.2403 -88.8622 239° Southwest 469 540 38,000  Level Memphis Center
Wed 10:15:08 AM 35.1750 -88.9981 240° Southwest 469 540 38,000  Level Memphis Center
Wed 10:16:08 AM 35.1117 -89.1311 240° Southwest 463 533 38,000  Level Memphis Center
Wed 10:17:08 AM 35.0442 -89.2664 239° Southwest 463 533 38,000  Level Memphis Center
Wed 10:18:08 AM 34.9786 -89.3964 238° Southwest 469 540 38,000  Level Memphis Center
Wed 10:19:08 AM 34.9067 -89.5417 239° Southwest 464 534 38,000  Level Memphis Center
Wed 10:20:08 AM 34.8428 -89.6689 239° Southwest 464 534 38,000  Level Memphis Center
Wed 10:21:08 AM 34.7744 -89.8008 238° Southwest 470 541 38,000  Level Memphis Center
Wed 10:22:08 AM 34.7083 -89.9453 241° Southwest 499 574 38,000  Level Memphis Center
Wed 10:23:08 AM 34.6439 -90.0769 239° Southwest 481 554 38,000  Level Memphis Center
Wed 10:24:08 AM 34.5775 -90.2083 238° Southwest 467 537 38,000  Level Memphis Center
Wed 10:25:08 AM 34.5025 -90.3319 234° Southwest 462 532 38,000  Level Memphis Center
Wed 10:26:08 AM 34.4189 -90.4478 229° Southwest 462 532 38,000  Level Memphis Center
Wed 10:27:08 AM 34.3353 -90.5633 229° Southwest 462 532 38,000  Level Memphis Center
Wed 10:28:08 AM 34.2433 -90.6939 230° Southwest 462 532 38,000  Level Memphis Center
Wed 10:29:08 AM 34.1572 -90.8089 228° Southwest 462 532 38,000  Level Memphis Center
Wed 10:30:08 AM 34.0733 -90.9264 229° Southwest 462 532 38,000  Level Memphis Center
Wed 10:31:08 AM 33.9872 -91.0411 228° Southwest 462 532 38,000  Level Memphis Center
Wed 10:32:08 AM 33.9031 -91.1581 229° Southwest 462 532 38,000  Level Memphis Center
Wed 10:33:08 AM 33.8167 -91.2722 228° Southwest 462 532 38,000  Level Memphis Center
Wed 10:34:08 AM 33.7428 -91.3764 230° Southwest 462 532 38,000  Level Memphis Center
Wed 10:35:08 AM 33.6542 -91.4928 228° Southwest 467 537 38,000  Level Memphis Center
Wed 10:37:25 AM 33.4636 -91.7567 229° Southwest 462 532 38,000  Level Fort Worth Center
Wed 10:38:25 AM 33.3769 -91.8717 228° Southwest 467 537 38,000  Level Fort Worth Center
Wed 10:39:25 AM 33.2903 -91.9889 229° Southwest 473 544 38,000  Level Fort Worth Center
Wed 10:40:25 AM 33.2014 -92.1061 228° Southwest 478 550 38,000  Level Fort Worth Center
Wed 10:41:25 AM 33.1044 -92.2333 228° Southwest 478 550 38,000  Level Fort Worth Center
Wed 10:42:25 AM 33.0133 -92.3525 228° Southwest 478 550 38,000  Level Fort Worth Center
Wed 10:43:25 AM 32.9261 -92.4689 228° Southwest 483 556 38,000  Level Fort Worth Center
Wed 10:44:25 AM 32.8347 -92.5850 227° Southwest 483 556 38,000  Level Fort Worth Center
Wed 10:45:25 AM 32.7453 -92.7011 228° Southwest 483 556 38,000  Level Fort Worth Center
Wed 10:46:25 AM 32.6556 -92.8192 228° Southwest 489 563 38,000  Level Fort Worth Center
Wed 10:47:25 AM 32.5636 -92.9347 227° Southwest 489 563 38,000  Level Fort Worth Center
Wed 10:48:25 AM 32.4758 -93.0500 228° Southwest 482 555 38,000  Level Fort Worth Center
Wed 10:49:25 AM 32.3842 -93.1700 228° Southwest 487 560 38,000  Level Fort Worth Center
Wed 10:50:25 AM 32.2939 -93.2822 226° Southwest 487 560 38,000  Level Fort Worth Center
Wed 10:50:40 AM 32.2881 -93.2969 245° Southwest 480 552 38,000  Level Houston Center
Wed 10:51:25 AM 32.2033 -93.3919 224° Southwest 487 560 38,000  Level Fort Worth Center
Wed 10:52:25 AM 32.1233 -93.5011 229° Southwest 481 554 38,000  Level Fort Worth Center
Wed 10:52:44 AM 32.0875 -93.5378 221° Southwest 467 537 38,000  Level Houston Center
Wed 10:53:46 AM 31.9981 -93.6456 226° Southwest 465 535 38,000  Level Houston Center
Wed 10:54:49 AM 31.9069 -93.7528 225° Southwest 463 533 38,000  Level Houston Center
Wed 10:55:51 AM 31.8169 -93.8586 225° Southwest 461 531 38,000  Level Houston Center
Wed 10:56:53 AM 31.7203 -93.9728 225° Southwest 459 528 38,000  Level Houston Center
Wed 10:57:55 AM 31.6300 -94.0789 225° Southwest 459 528 38,000  Level Houston Center
Wed 10:58:57 AM 31.5189 -94.2064 224° Southwest 464 534 38,000  Level Houston Center
Wed 10:59:59 AM 31.4286 -94.3125 225° Southwest 461 531 38,000  Level Houston Center
Wed 11:01:01 AM 31.3369 -94.4189 225° Southwest 461 531 38,000  Level Houston Center
Wed 11:02:03 AM 31.2442 -94.5239 224° Southwest 463 533 38,000  Level Houston Center
Wed 11:03:06 AM 31.1486 -94.6306 224° Southwest 465 535 38,000  Level Houston Center
Wed 11:04:08 AM 31.0533 -94.7414 225° Southwest 477 549 38,000  Level Houston Center
Wed 11:05:10 AM 30.9619 -94.8489 225° Southwest 466 536 38,000  Level Houston Center
Wed 11:06:12 AM 30.8717 -94.9542 225° Southwest 460 529 38,000  Level Houston Center
Wed 11:07:14 AM 30.7797 -95.0592 224° Southwest 461 531 38,000  Level Houston Center
Wed 11:08:16 AM 30.6700 -95.1836 224° Southwest 458 527 38,000  Level Houston Center
Wed 11:09:18 AM 30.5781 -95.2872 224° Southwest 459 528 38,000  Level Houston Center
Wed 11:10:21 AM 30.4864 -95.3911 224° Southwest 459 528 38,000  Level Houston Center
Wed 11:11:23 AM 30.3942 -95.4964 225° Southwest 459 528 38,000  Level Houston Center
Wed 11:12:25 AM 30.3044 -95.5989 225° Southwest 456 525 38,000  Level Houston Center
Wed 11:13:27 AM 30.2136 -95.7014 224° Southwest 458 527 38,000  Level Houston Center
Wed 11:14:29 AM 30.1219 -95.8011 223° Southwest 456 525 38,000  Level Houston Center
Wed 11:15:32 AM 30.0133 -95.9217 224° Southwest 455 524 38,000  Level Houston Center
Wed 11:16:33 AM 29.9150 -96.0306 224° Southwest 456 525 38,000  Level Houston Center
Wed 11:17:35 AM 29.8303 -96.1386 228° Southwest 457 526 38,000  Level Houston Center
Wed 11:18:37 AM 29.7919 -96.2747 252° West 454 522 38,000 -576 Level Houston Center
Wed 11:19:40 AM 29.7978 -96.4206 273° West 462 532 36,800 -1,488 Descending Houston Center
Wed 11:20:42 AM 29.8083 -96.5661 275° West 461 531 34,900 -2,032 Descending Houston Center
Wed 11:21:44 AM 29.8217 -96.7414 275° West 463 533 32,600 -2,129 Descending Houston Center
Wed 11:22:46 AM 29.8319 -96.8886 275° West 465 535 30,500 -2,419 Descending Houston Center
Wed 11:23:48 AM 29.8422 -97.0381 275° West 472 543 27,600 -2,806 Descending Houston Center
Wed 11:24:50 AM 29.8531 -97.1839 275° West 463 533 24,700 -2,758 Descending Houston Center
Wed 11:25:52 AM 29.8617 -97.3244 274° West 448 516 21,900 -3,048 Descending Houston Center
Wed 11:26:54 AM 29.8728 -97.4861 275° West 427 491 18,400 -3,072 Descending Houston Center
Wed 11:27:57 AM 29.8817 -97.6217 274° West 407 468 15,500 -2,592 Descending Houston Center
Wed 11:28:59 AM 29.8903 -97.7481 275° West 397 457 13,000 -1,531 Descending Houston Center
Wed 11:29:35 AM 29.8947 -97.8211 274° West 382 440 13,000  Level Houston Center
Wed 11:30:01 AM 29.8908 -97.8756 265° West 374 430 13,000  Level Houston Center
Wed 11:30:36 AM 29.8658 -97.9358 244° Southwest 376 433 13,000 -581 Level Houston Center
Wed 11:31:03 AM 29.8442 -97.9867 244° Southwest 386 444 12,400 -1,700 Descending Houston Center
Wed 11:31:36 AM 29.8164 -98.0553 245° Southwest 388 447 11,300 -1,935 Descending Houston Center
Wed 11:32:05 AM 29.7944 -98.1050 243° Southwest 384 442 10,400 -1,574 Descending Houston Center
Wed 11:32:37 AM 29.7717 -98.1594 244° Southwest 359 413 9,700 -677 Descending Houston Center
Wed 11:33:07 AM 29.7542 -98.2008 244° Southwest 334 384 9,700 -590 Level Houston Center
Wed 11:33:38 AM 29.7375 -98.2431 246° West 272 313 9,100 -1,258 Descending Houston Center
Wed 11:34:09 AM 29.7194 -98.2864 244° Southwest 278 320 8,400 -1,279 Descending Houston Center
Wed 11:34:39 AM 29.7200 -98.3269 271° West 274 315 7,800 -1,258 Descending Houston Center
Wed 11:35:11 AM 29.7164 -98.3781 265° West 289 333 7,100 -1,300 Descending Houston Center
Wed 11:35:39 AM 29.7161 -98.4189 270° West 292 336 6,500 -1,333 Descending Houston Center
Wed 11:36:14 AM 29.7133 -98.4744 267° West 285 328 5,700 -1,377 Descending Houston Center
Wed 11:36:40 AM 29.7119 -98.5133 268° West 271 312 5,100 -1,355 Descending Houston Center
Wed 11:37:16 AM 29.7100 -98.5572 267° West 262 302 4,300 -1,574 Descending Houston Center
Wed 11:37:41 AM 29.7069 -98.5956 265° West 265 305 3,500 -1,258 Descending Houston Center
Wed 11:38:18 AM 29.6758 -98.6247 219° Southwest 245 282 3,000 -590 Descending Houston Center
Wed 11:38:42 AM 29.6550 -98.6236 177° South 206 237 2,900 -194 Descending Houston Center
Wed 11:39:20 AM 29.6350 -98.5953 129° Southeast 189 217 2,800  Descending Houston Center
Wed 11:39:42 AM 29.6219 -98.5842 144° Southeast 156 180 2,900 -97 Climbing Houston Center
Wed 11:40:22 AM 29.5994 -98.5575 134° Southeast 165 190 2,700 -393 Descending Houston Center
Wed 11:40:43 AM 29.5914 -98.5494 139° Southeast 150 173 2,500 -774 Descending Houston Center
Wed 11:41:24 AM 29.5731 -98.5239 130° Southeast 144 166 1,900 -984 Descending Houston Center
Wed 11:41:44 AM 29.5631 -98.5144 141° Southeast 133 153 1,500 -857 Descending Houston Center
Wed 11:42:27 AM 29.5478 -98.4900 126° Southeast 133 153 1,000 -698 Descending Houston Center

Login

Don't have an account? Register now (free) for customized features, flight alerts, and more!